Terminal Aerodrome Forecast
Issued by NWS

Home | Current Version | Previous Version | Graphics & Text | Print | Product List | Glossary On
Versions: 1 2 3 4 5 6 7 8 9 10 11 12 13
000
FTUS43 KGRB 301720
TAFCWA
TAF
KCWA 301720Z 3018/0118 35010G13KT P6SM SCT035
     FM302200 35011KT P6SM SCT040
     FM010200 VRB03KT P6SM SKC
     FM011400 03006KT P6SM SCT040
      AMD NOT SKED=

USA.gov is the U.S. government's official web portal to all federal, state and local government web resources and services.